KHII/HII METAR and TAF weather

Enter ICAO airport designator
Station Type Date Time Source
KHII METAR 2019/06/19 02:35 UTC NOAA

KHII 190235Z AUTO 21005KT 10SM CLR 37/M02 A2977 RMK AO2


Station Type Date Time Source
KHII Decoded METAR 2019/06/19 02:35 UTC NOAA

Station name not available
Jun 18, 2019 - 10:35 PM EDT / 2019.06.19 0235 UTC
Wind: from the SSW (210 degrees) at 6 MPH (5 KT):0
Visibility: 10 mile(s):0
Sky conditions: clear
Temperature: 98 F (37 C)
Dew Point: 28 F (-2 C)
Relative Humidity: 8%
Pressure (altimeter): 29.77 in. Hg (1008 hPa)
ob: KHII 190235Z AUTO 21005KT 10SM CLR 37/M02 A2977 RMK AO2
cycle: 2

Station Type Date Time Source
KHII TAF UTC NOAA

Error!

Example: see airport list